Terminal Aerodrome Forecast
Issued by NWS Tampa Bay Area, FL

Home | Current Version | Previous Version | Text Only | Print | Product List | Glossary Off
Versions: 1 2 3 4 5 6 7 8 9 10 11 12 13

951
FTUS42 KTBW 202341
TAFFMY
TAF
KFMY 202341Z 2100/2124 08010KT P6SM VCSH FEW030 BKN050 BKN070
     FM210200 06008KT P6SM FEW250
     FM211500 08012G19KT P6SM SCT040 BKN100=

USA.gov is the U.S. government's official web portal to all federal, state and local government web resources and services.